To NAV CANADA Home Page Login to a new session Search on AWWS site Disclaimer Vers la page française équivalente Tips FAQ What's new on the site To the Forecasts and Observations / NOTAM section To "File a Flight Plan" website Publications and other links Update of the User's profile FIC Telephone Numbers My Weather Data Folder Route Weather Data Regional Weather Data Local Weather Data To the Forecasts and Observations / NOTAM section
Request Generated 11/13/2018 at 18:26:42 UTC . Weather information available at that time is displayed.

METAR/TAF

WHITEHORSE/ERIK NIELSEN INTL/YT    

METAR CYXY 131800Z 20010KT 40SM BKN120 OVC240 01/M03 A2946 RMK AC6CI2 SLP008=
METAR CYXY 131700Z 17017KT 40SM BKN120 BKN240 01/M03 A2950 RMK AC5CI2 SLP023=
METAR CYXY 131600Z 19008G15KT 15SM FEW190 BKN240 00/M03 A2954 RMK AC1CI6 SLP037=

TAF CYXY 131741Z 1318/1406 17015KT P6SM BKN100 OVC240 TEMPO 1318/1320
5SM -SN BKN060 OVC100
FM132000 17010KT P6SM -SN OVC050 TEMPO 1320/1402 2SM -SN OVC020
FM140200 VRB03KT 6SM -SN SCT008 OVC030 TEMPO 1402/1406 11/2SM
-SHSN BKN008 OVC030
RMK NXT FCST BY 140000Z=
Your time UTC time
Weather data provided by Environment Canada and NAV CANADA